Aviation Digital Data Service (ADDS)

Output produced by METARs form (0852 UTC 27 February 2020)
found at http://www.aviationweather.gov/metar/data/
 
METAR text: EDDK 270820Z 16008KT 9999 FEW048 04/00 Q1003 NOSIG
Conditions at: EDDK (KOELN/BONN , DE) observed 0820 UTC 27 February 2020
Temperature: 4.0°C (39°F)
Dewpoint: 0.0°C (32°F) [RH = 75%]
Pressure (altimeter): 29.62 inches Hg (1003.0 mb)
Winds: from the SSE (160 degrees) at 9 MPH (8 knots; 4.1 m/s)
Visibility: 6 or more miles (10+ km)
Ceiling: at least 12,000 feet AGL
Clouds: few clouds at 4800 feet AGL
Weather: no significant weather observed at this time

METAR text: EDDK 270750Z 17009KT 9999 FEW030 03/M00 Q1003 NOSIG
Conditions at: EDDK (KOELN/BONN , DE) observed 0750 UTC 27 February 2020
Temperature: 3.0°C (37°F)
Dewpoint: 0.0°C (32°F) [RH = 81%]
Pressure (altimeter): 29.62 inches Hg (1003.0 mb)
Winds: from the S (170 degrees) at 10 MPH (9 knots; 4.6 m/s)
Visibility: 6 or more miles (10+ km)
Ceiling: at least 12,000 feet AGL
Clouds: few clouds at 3000 feet AGL
Weather: no significant weather observed at this time

METAR text: EDDK 270720Z 17008KT 9999 FEW034 03/00 Q1004 NOSIG
Conditions at: EDDK (KOELN/BONN , DE) observed 0720 UTC 27 February 2020
Temperature: 3.0°C (37°F)
Dewpoint: 0.0°C (32°F) [RH = 81%]
Pressure (altimeter): 29.65 inches Hg (1004.0 mb)
Winds: from the S (170 degrees) at 9 MPH (8 knots; 4.1 m/s)
Visibility: 6 or more miles (10+ km)
Ceiling: at least 12,000 feet AGL
Clouds: few clouds at 3400 feet AGL
Weather: no significant weather observed at this time

METAR text: EDDK 270650Z 18008KT 9999 FEW034 02/M00 Q1004 NOSIG
Conditions at: EDDK (KOELN/BONN , DE) observed 0650 UTC 27 February 2020
Temperature: 2.0°C (36°F)
Dewpoint: 0.0°C (32°F) [RH = 87%]
Pressure (altimeter): 29.65 inches Hg (1004.0 mb)
Winds: from the S (180 degrees) at 9 MPH (8 knots; 4.1 m/s)
Visibility: 6 or more miles (10+ km)
Ceiling: at least 12,000 feet AGL
Clouds: few clouds at 3400 feet AGL
Weather: no significant weather observed at this time

METAR text: EDDK 270620Z 17007KT 9999 FEW035 02/00 Q1004 NOSIG
Conditions at: EDDK (KOELN/BONN , DE) observed 0620 UTC 27 February 2020
Temperature: 2.0°C (36°F)
Dewpoint: 0.0°C (32°F) [RH = 87%]
Pressure (altimeter): 29.65 inches Hg (1004.0 mb)
Winds: from the S (170 degrees) at 8 MPH (7 knots; 3.6 m/s)
Visibility: 6 or more miles (10+ km)
Ceiling: at least 12,000 feet AGL
Clouds: few clouds at 3500 feet AGL
Weather: no significant weather observed at this time

METAR text: EDDK 270550Z 17007KT 9999 FEW033 02/00 Q1005 NOSIG
Conditions at: EDDK (KOELN/BONN , DE) observed 0550 UTC 27 February 2020
Temperature: 2.0°C (36°F)
Dewpoint: 0.0°C (32°F) [RH = 87%]
Pressure (altimeter): 29.68 inches Hg (1005.0 mb)
Winds: from the S (170 degrees) at 8 MPH (7 knots; 3.6 m/s)
Visibility: 6 or more miles (10+ km)
Ceiling: at least 12,000 feet AGL
Clouds: few clouds at 3300 feet AGL
Weather: no significant weather observed at this time

METAR text: EDDK 270520Z 17006KT 9999 FEW042 02/00 Q1005 NOSIG
Conditions at: EDDK (KOELN/BONN , DE) observed 0520 UTC 27 February 2020
Temperature: 2.0°C (36°F)
Dewpoint: 0.0°C (32°F) [RH = 87%]
Pressure (altimeter): 29.68 inches Hg (1005.0 mb)
Winds: from the S (170 degrees) at 7 MPH (6 knots; 3.1 m/s)
Visibility: 6 or more miles (10+ km)
Ceiling: at least 12,000 feet AGL
Clouds: few clouds at 4200 feet AGL
Weather: no significant weather observed at this time

METAR text: EDDK 270450Z 17005KT 9999 SCT044 02/00 Q1005 NOSIG
Conditions at: EDDK (KOELN/BONN , DE) observed 0450 UTC 27 February 2020
Temperature: 2.0°C (36°F)
Dewpoint: 0.0°C (32°F) [RH = 87%]
Pressure (altimeter): 29.68 inches Hg (1005.0 mb)
Winds: from the S (170 degrees) at 6 MPH (5 knots; 2.6 m/s)
Visibility: 6 or more miles (10+ km)
Ceiling: at least 12,000 feet AGL
Clouds: scattered clouds at 4400 feet AGL
Weather: no significant weather observed at this time

METAR text: EDDK 270420Z 21006KT 9999 FEW020 SCT042 03/01 Q1006 NOSIG
Conditions at: EDDK (KOELN/BONN , DE) observed 0420 UTC 27 February 2020
Temperature: 3.0°C (37°F)
Dewpoint: 1.0°C (34°F) [RH = 87%]
Pressure (altimeter): 29.70 inches Hg (1006.0 mb)
Winds: from the SSW (210 degrees) at 7 MPH (6 knots; 3.1 m/s)
Visibility: 6 or more miles (10+ km)
Ceiling: at least 12,000 feet AGL
Clouds: few clouds at 2000 feet AGL
scattered clouds at 4200 feet AGL
Weather: no significant weather observed at this time

METAR text: EDDK 270350Z 23006KT 200V270 9999 BKN038 03/01 Q1006 NOSIG
Conditions at: EDDK (KOELN/BONN , DE) observed 0350 UTC 27 February 2020
Temperature: 3.0°C (37°F)
Dewpoint: 1.0°C (34°F) [RH = 87%]
Pressure (altimeter): 29.70 inches Hg (1006.0 mb)
Winds: from the SW (230 degrees) at 7 MPH (6 knots; 3.1 m/s)
Visibility: 6 or more miles (10+ km)
Ceiling: 3800 feet AGL
Clouds: broken clouds at 3800 feet AGL
Weather: no significant weather observed at this time

METAR text: EDDK 270320Z 22008KT 200V270 9999 SCT017 BKN030 03/01 Q1006 NOSIG
Conditions at: EDDK (KOELN/BONN , DE) observed 0320 UTC 27 February 2020
Temperature: 3.0°C (37°F)
Dewpoint: 1.0°C (34°F) [RH = 87%]
Pressure (altimeter): 29.70 inches Hg (1006.0 mb)
Winds: from the SW (220 degrees) at 9 MPH (8 knots; 4.1 m/s)
Visibility: 6 or more miles (10+ km)
Ceiling: 3000 feet AGL
Clouds: scattered clouds at 1700 feet AGL
broken clouds at 3000 feet AGL
Weather: no significant weather observed at this time

METAR text: EDDK 270250Z 22006KT 190V250 9999 BKN018 03/01 Q1006 NOSIG
Conditions at: EDDK (KOELN/BONN , DE) observed 0250 UTC 27 February 2020
Temperature: 3.0°C (37°F)
Dewpoint: 1.0°C (34°F) [RH = 87%]
Pressure (altimeter): 29.70 inches Hg (1006.0 mb)
Winds: from the SW (220 degrees) at 7 MPH (6 knots; 3.1 m/s)
Visibility: 6 or more miles (10+ km)
Ceiling: 1800 feet AGL
Clouds: broken clouds at 1800 feet AGL
Weather: no significant weather observed at this time

METAR text: EDDK 270220Z 20008KT 9999 BKN022 03/01 Q1006 NOSIG
Conditions at: EDDK (KOELN/BONN , DE) observed 0220 UTC 27 February 2020
Temperature: 3.0°C (37°F)
Dewpoint: 1.0°C (34°F) [RH = 87%]
Pressure (altimeter): 29.70 inches Hg (1006.0 mb)
Winds: from the SSW (200 degrees) at 9 MPH (8 knots; 4.1 m/s)
Visibility: 6 or more miles (10+ km)
Ceiling: 2200 feet AGL
Clouds: broken clouds at 2200 feet AGL
Weather: no significant weather observed at this time

METAR text: EDDK 270150Z 19006KT 9999 BKN024 03/01 Q1007 NOSIG
Conditions at: EDDK (KOELN/BONN , DE) observed 0150 UTC 27 February 2020
Temperature: 3.0°C (37°F)
Dewpoint: 1.0°C (34°F) [RH = 87%]
Pressure (altimeter): 29.73 inches Hg (1007.0 mb)
Winds: from the S (190 degrees) at 7 MPH (6 knots; 3.1 m/s)
Visibility: 6 or more miles (10+ km)
Ceiling: 2400 feet AGL
Clouds: broken clouds at 2400 feet AGL
Weather: no significant weather observed at this time

METAR text: EDDK 270120Z 22006KT 190V250 9999 BKN022 03/01 Q1007 NOSIG
Conditions at: EDDK (KOELN/BONN , DE) observed 0120 UTC 27 February 2020
Temperature: 3.0°C (37°F)
Dewpoint: 1.0°C (34°F) [RH = 87%]
Pressure (altimeter): 29.73 inches Hg (1007.0 mb)
Winds: from the SW (220 degrees) at 7 MPH (6 knots; 3.1 m/s)
Visibility: 6 or more miles (10+ km)
Ceiling: 2200 feet AGL
Clouds: broken clouds at 2200 feet AGL
Weather: no significant weather observed at this time

METAR text: EDDK 270050Z 26010KT 9999 -SHSNRA SCT012 SCT025TCU 03/01 Q1007 NOSIG
Conditions at: EDDK (KOELN/BONN , DE) observed 0050 UTC 27 February 2020
Temperature: 3.0°C (37°F)
Dewpoint: 1.0°C (34°F) [RH = 87%]
Pressure (altimeter): 29.73 inches Hg (1007.0 mb)
Winds: from the W (260 degrees) at 12 MPH (10 knots; 5.1 m/s)
Visibility: 6 or more miles (10+ km)
Ceiling: at least 12,000 feet AGL
Clouds: scattered clouds at 1200 feet AGL
scattered clouds at 2500 feet AGL
Weather: -SHSN -SHRA  (light snow showers, light rain showers)

METAR text: EDDK 270020Z 23008KT 9999 VCSH FEW013 SCT035TCU 03/01 Q1007 NOSIG
Conditions at: EDDK (KOELN/BONN , DE) observed 0020 UTC 27 February 2020
Temperature: 3.0°C (37°F)
Dewpoint: 1.0°C (34°F) [RH = 87%]
Pressure (altimeter): 29.73 inches Hg (1007.0 mb)
Winds: from the SW (230 degrees) at 9 MPH (8 knots; 4.1 m/s)
Visibility: 6 or more miles (10+ km)
Ceiling: at least 12,000 feet AGL
Clouds: few clouds at 1300 feet AGL
scattered clouds at 3500 feet AGL
Weather: VCSH  (showers in vicinity)

METAR text: EDDK 262350Z 24008KT 9999 FEW025 SCT035 02/00 Q1007 NOSIG
Conditions at: EDDK (KOELN/BONN , DE) observed 2350 UTC 26 February 2020
Temperature: 2.0°C (36°F)
Dewpoint: 0.0°C (32°F) [RH = 87%]
Pressure (altimeter): 29.73 inches Hg (1007.0 mb)
Winds: from the WSW (240 degrees) at 9 MPH (8 knots; 4.1 m/s)
Visibility: 6 or more miles (10+ km)
Ceiling: at least 12,000 feet AGL
Clouds: few clouds at 2500 feet AGL
scattered clouds at 3500 feet AGL
Weather: no significant weather observed at this time

METAR text: EDDK 262320Z 24010KT 220V290 9999 VCSH FEW038TCU 02/01 Q1007 NOSIG
Conditions at: EDDK (KOELN/BONN , DE) observed 2320 UTC 26 February 2020
Temperature: 2.0°C (36°F)
Dewpoint: 1.0°C (34°F) [RH = 93%]
Pressure (altimeter): 29.73 inches Hg (1007.0 mb)
Winds: from the WSW (240 degrees) at 12 MPH (10 knots; 5.1 m/s)
Visibility: 6 or more miles (10+ km)
Ceiling: at least 12,000 feet AGL
Clouds: few clouds at 3800 feet AGL
Weather: VCSH  (showers in vicinity)

METAR text: EDDK 262250Z 24008KT 210V270 9999 VCSH FEW015 SCT026TCU 02/00 Q1007 NOSIG
Conditions at: EDDK (KOELN/BONN , DE) observed 2250 UTC 26 February 2020
Temperature: 2.0°C (36°F)
Dewpoint: 0.0°C (32°F) [RH = 87%]
Pressure (altimeter): 29.73 inches Hg (1007.0 mb)
Winds: from the WSW (240 degrees) at 9 MPH (8 knots; 4.1 m/s)
Visibility: 6 or more miles (10+ km)
Ceiling: at least 12,000 feet AGL
Clouds: few clouds at 1500 feet AGL
scattered clouds at 2600 feet AGL
Weather: VCSH  (showers in vicinity)

METAR text: EDDK 262220Z 25011KT 9999 FEW015 03/01 Q1007 NOSIG
Conditions at: EDDK (KOELN/BONN , DE) observed 2220 UTC 26 February 2020
Temperature: 3.0°C (37°F)
Dewpoint: 1.0°C (34°F) [RH = 87%]
Pressure (altimeter): 29.73 inches Hg (1007.0 mb)
Winds: from the WSW (250 degrees) at 13 MPH (11 knots; 5.7 m/s)
Visibility: 6 or more miles (10+ km)
Ceiling: at least 12,000 feet AGL
Clouds: few clouds at 1500 feet AGL
Weather: no significant weather observed at this time

METAR text: EDDK 262150Z 24007KT 9999 FEW030 03/01 Q1007 NOSIG
Conditions at: EDDK (KOELN/BONN , DE) observed 2150 UTC 26 February 2020
Temperature: 3.0°C (37°F)
Dewpoint: 1.0°C (34°F) [RH = 87%]
Pressure (altimeter): 29.73 inches Hg (1007.0 mb)
Winds: from the WSW (240 degrees) at 8 MPH (7 knots; 3.6 m/s)
Visibility: 6 or more miles (10+ km)
Ceiling: at least 12,000 feet AGL
Clouds: few clouds at 3000 feet AGL
Weather: no significant weather observed at this time

METAR text: EDDK 262120Z 24008KT 9999 SCT025 03/01 Q1007 NOSIG
Conditions at: EDDK (KOELN/BONN , DE) observed 2120 UTC 26 February 2020
Temperature: 3.0°C (37°F)
Dewpoint: 1.0°C (34°F) [RH = 87%]
Pressure (altimeter): 29.73 inches Hg (1007.0 mb)
Winds: from the WSW (240 degrees) at 9 MPH (8 knots; 4.1 m/s)
Visibility: 6 or more miles (10+ km)
Ceiling: at least 12,000 feet AGL
Clouds: scattered clouds at 2500 feet AGL
Weather: no significant weather observed at this time

METAR text: EDDK 262050Z 24009KT 9999 FEW030 03/01 Q1006 NOSIG
Conditions at: EDDK (KOELN/BONN , DE) observed 2050 UTC 26 February 2020
Temperature: 3.0°C (37°F)
Dewpoint: 1.0°C (34°F) [RH = 87%]
Pressure (altimeter): 29.70 inches Hg (1006.0 mb)
Winds: from the WSW (240 degrees) at 10 MPH (9 knots; 4.6 m/s)
Visibility: 6 or more miles (10+ km)
Ceiling: at least 12,000 feet AGL
Clouds: few clouds at 3000 feet AGL
Weather: no significant weather observed at this time

METAR text: EDDK 262020Z 25008KT 9999 FEW015 SCT024 03/01 Q1006 NOSIG
Conditions at: EDDK (KOELN/BONN , DE) observed 2020 UTC 26 February 2020
Temperature: 3.0°C (37°F)
Dewpoint: 1.0°C (34°F) [RH = 87%]
Pressure (altimeter): 29.70 inches Hg (1006.0 mb)
Winds: from the WSW (250 degrees) at 9 MPH (8 knots; 4.1 m/s)
Visibility: 6 or more miles (10+ km)
Ceiling: at least 12,000 feet AGL
Clouds: few clouds at 1500 feet AGL
scattered clouds at 2400 feet AGL
Weather: no significant weather observed at this time

METAR text: EDDK 261950Z 26011KT 9999 BKN028 03/01 Q1006 NOSIG
Conditions at: EDDK (KOELN/BONN , DE) observed 1950 UTC 26 February 2020
Temperature: 3.0°C (37°F)
Dewpoint: 1.0°C (34°F) [RH = 87%]
Pressure (altimeter): 29.70 inches Hg (1006.0 mb)
Winds: from the W (260 degrees) at 13 MPH (11 knots; 5.7 m/s)
Visibility: 6 or more miles (10+ km)
Ceiling: 2800 feet AGL
Clouds: broken clouds at 2800 feet AGL
Weather: no significant weather observed at this time

METAR text: EDDK 261920Z 27010KT 9999 FEW018 03/00 Q1006 NOSIG
Conditions at: EDDK (KOELN/BONN , DE) observed 1920 UTC 26 February 2020
Temperature: 3.0°C (37°F)
Dewpoint: 0.0°C (32°F) [RH = 81%]
Pressure (altimeter): 29.70 inches Hg (1006.0 mb)
Winds: from the W (270 degrees) at 12 MPH (10 knots; 5.1 m/s)
Visibility: 6 or more miles (10+ km)
Ceiling: at least 12,000 feet AGL
Clouds: few clouds at 1800 feet AGL
Weather: no significant weather observed at this time

METAR text: EDDK 261850Z 26013KT 9999 FEW016 03/01 Q1005 NOSIG
Conditions at: EDDK (KOELN/BONN , DE) observed 1850 UTC 26 February 2020
Temperature: 3.0°C (37°F)
Dewpoint: 1.0°C (34°F) [RH = 87%]
Pressure (altimeter): 29.68 inches Hg (1005.0 mb)
Winds: from the W (260 degrees) at 15 MPH (13 knots; 6.7 m/s)
Visibility: 6 or more miles (10+ km)
Ceiling: at least 12,000 feet AGL
Clouds: few clouds at 1600 feet AGL
Weather: no significant weather observed at this time

METAR text: EDDK 261820Z 26013KT 9999 SCT016 03/01 Q1005 NOSIG
Conditions at: EDDK (KOELN/BONN , DE) observed 1820 UTC 26 February 2020
Temperature: 3.0°C (37°F)
Dewpoint: 1.0°C (34°F) [RH = 87%]
Pressure (altimeter): 29.68 inches Hg (1005.0 mb)
Winds: from the W (260 degrees) at 15 MPH (13 knots; 6.7 m/s)
Visibility: 6 or more miles (10+ km)
Ceiling: at least 12,000 feet AGL
Clouds: scattered clouds at 1600 feet AGL
Weather: no significant weather observed at this time

METAR text: EDDK 261750Z 27014KT 9999 FEW017TCU BKN019 04/01 Q1005 NOSIG
Conditions at: EDDK (KOELN/BONN , DE) observed 1750 UTC 26 February 2020
Temperature: 4.0°C (39°F)
Dewpoint: 1.0°C (34°F) [RH = 81%]
Pressure (altimeter): 29.68 inches Hg (1005.0 mb)
Winds: from the W (270 degrees) at 16 MPH (14 knots; 7.2 m/s)
Visibility: 6 or more miles (10+ km)
Ceiling: 1900 feet AGL
Clouds: few clouds at 1700 feet AGL
broken clouds at 1900 feet AGL
Weather: no significant weather observed at this time

METAR text: EDDK 261720Z 27013KT 240V300 9999 FEW017TCU BKN020 04/01 Q1004 TEMPO SHRA
Conditions at: EDDK (KOELN/BONN , DE) observed 1720 UTC 26 February 2020
Temperature: 4.0°C (39°F)
Dewpoint: 1.0°C (34°F) [RH = 81%]
Pressure (altimeter): 29.65 inches Hg (1004.0 mb)
Winds: from the W (270 degrees) at 15 MPH (13 knots; 6.7 m/s)
Visibility: 6 or more miles (10+ km)
Ceiling: 2000 feet AGL
Clouds: few clouds at 1700 feet AGL
broken clouds at 2000 feet AGL
Weather: no significant weather observed at this time

METAR text: EDDK 261650Z 28015KT 9999 -SHRA FEW010 SCT016CB BKN038 04/01 Q1004 TEMPO SHRA
Conditions at: EDDK (KOELN/BONN , DE) observed 1650 UTC 26 February 2020
Temperature: 4.0°C (39°F)
Dewpoint: 1.0°C (34°F) [RH = 81%]
Pressure (altimeter): 29.65 inches Hg (1004.0 mb)
Winds: from the W (280 degrees) at 17 MPH (15 knots; 7.7 m/s)
Visibility: 6 or more miles (10+ km)
Ceiling: 3800 feet AGL
Clouds: few clouds at 1000 feet AGL
scattered clouds at 1600 feet AGL
broken clouds at 3800 feet AGL
Weather: -SHRA  (light rain showers)

METAR text: EDDK 261620Z 29011KT 9999 -SHRA FEW011 SCT013CB BKN020 04/02 Q1003 TEMPO SHRA
Conditions at: EDDK (KOELN/BONN , DE) observed 1620 UTC 26 February 2020
Temperature: 4.0°C (39°F)
Dewpoint: 2.0°C (36°F) [RH = 87%]
Pressure (altimeter): 29.62 inches Hg (1003.0 mb)
Winds: from the WNW (290 degrees) at 13 MPH (11 knots; 5.7 m/s)
Visibility: 6 or more miles (10+ km)
Ceiling: 2000 feet AGL
Clouds: few clouds at 1100 feet AGL
scattered clouds at 1300 feet AGL
broken clouds at 2000 feet AGL
Weather: -SHRA  (light rain showers)

METAR text: EDDK 261550Z 32009KT 290V350 9999 -SHRA FEW011 BKN014CB 04/02 Q1003 RESHRA TEMPO SHRA
Conditions at: EDDK (KOELN/BONN , DE) observed 1550 UTC 26 February 2020
Temperature: 4.0°C (39°F)
Dewpoint: 2.0°C (36°F) [RH = 87%]
Pressure (altimeter): 29.62 inches Hg (1003.0 mb)
Winds: from the NW (320 degrees) at 10 MPH (9 knots; 4.6 m/s)
Visibility: 6 or more miles (10+ km)
Ceiling: 1400 feet AGL
Clouds: few clouds at 1100 feet AGL
broken clouds at 1400 feet AGL
Weather: -SHRA  (light rain showers)

METAR text: EDDK 261520Z 27013KT 9999 -SHRA FEW012 SCT014CB BKN035 04/02 Q1002 TEMPO SHRA BKN014
Conditions at: EDDK (KOELN/BONN , DE) observed 1520 UTC 26 February 2020
Temperature: 4.0°C (39°F)
Dewpoint: 2.0°C (36°F) [RH = 87%]
Pressure (altimeter): 29.59 inches Hg (1002.0 mb)
Winds: from the W (270 degrees) at 15 MPH (13 knots; 6.7 m/s)
Visibility: 6 or more miles (10+ km)
Ceiling: 3500 feet AGL
Clouds: few clouds at 1200 feet AGL
scattered clouds at 1400 feet AGL
broken clouds at 3500 feet AGL
Weather: -SHRA  (light rain showers)

METAR text: EDDK 261450Z 28014KT 9999 -SHRA FEW011 SCT014TCU 04/02 Q1002 TEMPO SHRA BKN014
Conditions at: EDDK (KOELN/BONN , DE) observed 1450 UTC 26 February 2020
Temperature: 4.0°C (39°F)
Dewpoint: 2.0°C (36°F) [RH = 87%]
Pressure (altimeter): 29.59 inches Hg (1002.0 mb)
Winds: from the W (280 degrees) at 16 MPH (14 knots; 7.2 m/s)
Visibility: 6 or more miles (10+ km)
Ceiling: at least 12,000 feet AGL
Clouds: few clouds at 1100 feet AGL
scattered clouds at 1400 feet AGL
Weather: -SHRA  (light rain showers)

METAR text: EDDK 261420Z 27010KT 250V310 9999 -SHRA FEW009 BKN013TCU BKN036 03/02 Q1002 TEMPO SHRA
Conditions at: EDDK (KOELN/BONN , DE) observed 1420 UTC 26 February 2020
Temperature: 3.0°C (37°F)
Dewpoint: 2.0°C (36°F) [RH = 93%]
Pressure (altimeter): 29.59 inches Hg (1002.0 mb)
Winds: from the W (270 degrees) at 12 MPH (10 knots; 5.1 m/s)
Visibility: 6 or more miles (10+ km)
Ceiling: 1300 feet AGL
Clouds: few clouds at 900 feet AGL
broken clouds at 1300 feet AGL
broken clouds at 3600 feet AGL
Weather: -SHRA  (light rain showers)

METAR text: EDDK 261350Z 27015KT 9999 -SHRA FEW013 SCT015TCU BKN045 04/01 Q1001 TEMPO SHRA BKN013
Conditions at: EDDK (KOELN/BONN , DE) observed 1350 UTC 26 February 2020
Temperature: 4.0°C (39°F)
Dewpoint: 1.0°C (34°F) [RH = 81%]
Pressure (altimeter): 29.56 inches Hg (1001.0 mb)
Winds: from the W (270 degrees) at 17 MPH (15 knots; 7.7 m/s)
Visibility: 6 or more miles (10+ km)
Ceiling: 4500 feet AGL
Clouds: few clouds at 1300 feet AGL
scattered clouds at 1500 feet AGL
broken clouds at 4500 feet AGL
Weather: -SHRA  (light rain showers)

METAR text: EDDK 261320Z 28014KT 9999 -SHRA SCT013 SCT015CB BKN020 04/01 Q1001 TEMPO SHRA BKN013
Conditions at: EDDK (KOELN/BONN , DE) observed 1320 UTC 26 February 2020
Temperature: 4.0°C (39°F)
Dewpoint: 1.0°C (34°F) [RH = 81%]
Pressure (altimeter): 29.56 inches Hg (1001.0 mb)
Winds: from the W (280 degrees) at 16 MPH (14 knots; 7.2 m/s)
Visibility: 6 or more miles (10+ km)
Ceiling: 2000 feet AGL
Clouds: scattered clouds at 1300 feet AGL
scattered clouds at 1500 feet AGL
broken clouds at 2000 feet AGL
Weather: -SHRA  (light rain showers)

METAR text: EDDK 261250Z 28016KT 9999 FEW014TCU BKN018 04/01 Q1001 TEMPO SHRA BKN013
Conditions at: EDDK (KOELN/BONN , DE) observed 1250 UTC 26 February 2020
Temperature: 4.0°C (39°F)
Dewpoint: 1.0°C (34°F) [RH = 81%]
Pressure (altimeter): 29.56 inches Hg (1001.0 mb)
Winds: from the W (280 degrees) at 18 MPH (16 knots; 8.2 m/s)
Visibility: 6 or more miles (10+ km)
Ceiling: 1800 feet AGL
Clouds: few clouds at 1400 feet AGL
broken clouds at 1800 feet AGL
Weather: no significant weather observed at this time

METAR text: EDDK 261220Z 28017KT 9999 -SHRA FEW009 SCT013TCU BKN017 04/02 Q1000 TEMPO SHRA BKN013
Conditions at: EDDK (KOELN/BONN , DE) observed 1220 UTC 26 February 2020
Temperature: 4.0°C (39°F)
Dewpoint: 2.0°C (36°F) [RH = 87%]
Pressure (altimeter): 29.53 inches Hg (1000.0 mb)
Winds: from the W (280 degrees) at 20 MPH (17 knots; 8.7 m/s)
Visibility: 6 or more miles (10+ km)
Ceiling: 1700 feet AGL
Clouds: few clouds at 900 feet AGL
scattered clouds at 1300 feet AGL
broken clouds at 1700 feet AGL
Weather: -SHRA  (light rain showers)

METAR text: EDDK 261150Z 28015KT 9999 -RA FEW009 SCT013 BKN017 04/02 Q1000 TEMPO SHRA BKN013
Conditions at: EDDK (KOELN/BONN , DE) observed 1150 UTC 26 February 2020
Temperature: 4.0°C (39°F)
Dewpoint: 2.0°C (36°F) [RH = 87%]
Pressure (altimeter): 29.53 inches Hg (1000.0 mb)
Winds: from the W (280 degrees) at 17 MPH (15 knots; 7.7 m/s)
Visibility: 6 or more miles (10+ km)
Ceiling: 1700 feet AGL
Clouds: few clouds at 900 feet AGL
scattered clouds at 1300 feet AGL
broken clouds at 1700 feet AGL
Weather: -RA  (light rain)

METAR text: EDDK 261120Z 27012KT 9999 FEW009 BKN013 03/02 Q0999 BECMG BKN015
Conditions at: EDDK (KOELN/BONN , DE) observed 1120 UTC 26 February 2020
Temperature: 3.0°C (37°F)
Dewpoint: 2.0°C (36°F) [RH = 93%]
Pressure (altimeter): 29.50 inches Hg (999.0 mb)
Winds: from the W (270 degrees) at 14 MPH (12 knots; 6.2 m/s)
Visibility: 6 or more miles (10+ km)
Ceiling: 1300 feet AGL
Clouds: few clouds at 900 feet AGL
broken clouds at 1300 feet AGL
Weather: no significant weather observed at this time

METAR text: EDDK 261050Z 28013KT 9999 FEW007 BKN010 03/02 Q0999 NOSIG
Conditions at: EDDK (KOELN/BONN , DE) observed 1050 UTC 26 February 2020
Temperature: 3.0°C (37°F)
Dewpoint: 2.0°C (36°F) [RH = 93%]
Pressure (altimeter): 29.50 inches Hg (999.0 mb)
Winds: from the W (280 degrees) at 15 MPH (13 knots; 6.7 m/s)
Visibility: 6 or more miles (10+ km)
Ceiling: 1000 feet AGL
Clouds: few clouds at 700 feet AGL
broken clouds at 1000 feet AGL
Weather: no significant weather observed at this time

METAR text: EDDK 261020Z 27014KT 9999 -SNRA FEW007 BKN010 02/02 Q0998 TEMPO 3000 SHSN
Conditions at: EDDK (KOELN/BONN , DE) observed 1020 UTC 26 February 2020
Temperature: 2.0°C (36°F)
Dewpoint: 2.0°C (36°F) [RH = 100%]
Pressure (altimeter): 29.47 inches Hg (998.0 mb)
Winds: from the W (270 degrees) at 16 MPH (14 knots; 7.2 m/s)
Visibility: 6 or more miles (10+ km)
Ceiling: 1000 feet AGL
Clouds: few clouds at 700 feet AGL
broken clouds at 1000 feet AGL
Weather: -SN -RA  (light snow, light rain)

METAR text: EDDK 260950Z 27018KT 9999 -SNRA FEW007 BKN010 02/01 Q0997 TEMPO 3000 SHSN
Conditions at: EDDK (KOELN/BONN , DE) observed 0950 UTC 26 February 2020
Temperature: 2.0°C (36°F)
Dewpoint: 1.0°C (34°F) [RH = 93%]
Pressure (altimeter): 29.44 inches Hg (997.0 mb)
Winds: from the W (270 degrees) at 21 MPH (18 knots; 9.3 m/s)
Visibility: 6 or more miles (10+ km)
Ceiling: 1000 feet AGL
Clouds: few clouds at 700 feet AGL
broken clouds at 1000 feet AGL
Weather: -SN -RA  (light snow, light rain)

METAR text: EDDK 260920Z 27016KT 9999 -SNRA FEW006 BKN009 02/01 Q0997 TEMPO 3000 SHSN
Conditions at: EDDK (KOELN/BONN , DE) observed 0920 UTC 26 February 2020
Temperature: 2.0°C (36°F)
Dewpoint: 1.0°C (34°F) [RH = 93%]
Pressure (altimeter): 29.44 inches Hg (997.0 mb)
Winds: from the W (270 degrees) at 18 MPH (16 knots; 8.2 m/s)
Visibility: 6 or more miles (10+ km)
Ceiling: 900 feet AGL
Clouds: few clouds at 600 feet AGL
broken clouds at 900 feet AGL
Weather: -SN -RA  (light snow, light rain)

METAR text: EDDK 260850Z 27016KT 9999 -SHSNRA FEW006 BKN009TCU 02/01 Q0997 TEMPO 3000 SHSN
Conditions at: EDDK (KOELN/BONN , DE) observed 0850 UTC 26 February 2020
Temperature: 2.0°C (36°F)
Dewpoint: 1.0°C (34°F) [RH = 93%]
Pressure (altimeter): 29.44 inches Hg (997.0 mb)
Winds: from the W (270 degrees) at 18 MPH (16 knots; 8.2 m/s)
Visibility: 6 or more miles (10+ km)
Ceiling: 900 feet AGL
Clouds: few clouds at 600 feet AGL
broken clouds at 900 feet AGL
Weather: -SHSN -SHRA  (light snow showers, light rain showers)

METAR text: EDDK 260820Z 26016KT 8000 -SHSNRA FEW006 BKN009TCU 02/01 Q0996 TEMPO 3000 SHSN
Conditions at: EDDK (KOELN/BONN , DE) observed 0820 UTC 26 February 2020
Temperature: 2.0°C (36°F)
Dewpoint: 1.0°C (34°F) [RH = 93%]
Pressure (altimeter): 29.41 inches Hg (996.0 mb)
Winds: from the W (260 degrees) at 18 MPH (16 knots; 8.2 m/s)
Visibility: 5 miles ( 8 km)
Ceiling: 900 feet AGL
Clouds: few clouds at 600 feet AGL
broken clouds at 900 feet AGL
Weather: -SHSN -SHRA  (light snow showers, light rain showers)

METAR text: EDDK 260750Z 26018KT 9999 -SHSNRA FEW007 BKN009TCU 02/01 Q0995 TEMPO 3000 SHSN
Conditions at: EDDK (KOELN/BONN , DE) observed 0750 UTC 26 February 2020
Temperature: 2.0°C (36°F)
Dewpoint: 1.0°C (34°F) [RH = 93%]
Pressure (altimeter): 29.38 inches Hg (995.0 mb)
Winds: from the W (260 degrees) at 21 MPH (18 knots; 9.3 m/s)
Visibility: 6 or more miles (10+ km)
Ceiling: 900 feet AGL
Clouds: few clouds at 700 feet AGL
broken clouds at 900 feet AGL
Weather: -SHSN -SHRA  (light snow showers, light rain showers)

METAR text: EDDK 260720Z 26021KT 9999 -SHSNRA BKN009 BKN013TCU 02/01 Q0995 TEMPO 3000 SHSN
Conditions at: EDDK (KOELN/BONN , DE) observed 0720 UTC 26 February 2020
Temperature: 2.0°C (36°F)
Dewpoint: 1.0°C (34°F) [RH = 93%]
Pressure (altimeter): 29.38 inches Hg (995.0 mb)
Winds: from the W (260 degrees) at 24 MPH (21 knots; 10.8 m/s)
Visibility: 6 or more miles (10+ km)
Ceiling: 900 feet AGL
Clouds: broken clouds at 900 feet AGL
broken clouds at 1300 feet AGL
Weather: -SHSN -SHRA  (light snow showers, light rain showers)

METAR text: EDDK 260650Z 26020KT 9999 -SHSNRA SCT009 BKN013TCU BKN018 02/01 Q0994 TEMPO 3000 SHSN BKN009
Conditions at: EDDK (KOELN/BONN , DE) observed 0650 UTC 26 February 2020
Temperature: 2.0°C (36°F)
Dewpoint: 1.0°C (34°F) [RH = 93%]
Pressure (altimeter): 29.35 inches Hg (994.0 mb)
Winds: from the W (260 degrees) at 23 MPH (20 knots; 10.3 m/s)
Visibility: 6 or more miles (10+ km)
Ceiling: 1300 feet AGL
Clouds: scattered clouds at 900 feet AGL
broken clouds at 1300 feet AGL
broken clouds at 1800 feet AGL
Weather: -SHSN -SHRA  (light snow showers, light rain showers)

METAR text: EDDK 260620Z 25021KT 9999 -SHSNRA FEW010 SCT013TCU BKN018 02/01 Q0994 TEMPO 4500 SHSNRA BKN014
Conditions at: EDDK (KOELN/BONN , DE) observed 0620 UTC 26 February 2020
Temperature: 2.0°C (36°F)
Dewpoint: 1.0°C (34°F) [RH = 93%]
Pressure (altimeter): 29.35 inches Hg (994.0 mb)
Winds: from the WSW (250 degrees) at 24 MPH (21 knots; 10.8 m/s)
Visibility: 6 or more miles (10+ km)
Ceiling: 1800 feet AGL
Clouds: few clouds at 1000 feet AGL
scattered clouds at 1300 feet AGL
broken clouds at 1800 feet AGL
Weather: -SHSN -SHRA  (light snow showers, light rain showers)

METAR text: EDDK 260550Z 25022KT 9999 -SHSNRA FEW014 SCT018TCU BKN025 03/00 Q0993 TEMPO 4500 SHSNRA BKN014
Conditions at: EDDK (KOELN/BONN , DE) observed 0550 UTC 26 February 2020
Temperature: 3.0°C (37°F)
Dewpoint: 0.0°C (32°F) [RH = 81%]
Pressure (altimeter): 29.32 inches Hg (993.0 mb)
Winds: from the WSW (250 degrees) at 25 MPH (22 knots; 11.3 m/s)
Visibility: 6 or more miles (10+ km)
Ceiling: 2500 feet AGL
Clouds: few clouds at 1400 feet AGL
scattered clouds at 1800 feet AGL
broken clouds at 2500 feet AGL
Weather: -SHSN -SHRA  (light snow showers, light rain showers)

METAR text: EDDK 260520Z 24016KT 9999 VCSH FEW022TCU BKN030 04/M01 Q0993 TEMPO 4500 SHSNRA BKN014
Conditions at: EDDK (KOELN/BONN , DE) observed 0520 UTC 26 February 2020
Temperature: 4.0°C (39°F)
Dewpoint: -1.0°C (30°F) [RH = 70%]
Pressure (altimeter): 29.32 inches Hg (993.0 mb)
Winds: from the WSW (240 degrees) at 18 MPH (16 knots; 8.2 m/s)
Visibility: 6 or more miles (10+ km)
Ceiling: 3000 feet AGL
Clouds: few clouds at 2200 feet AGL
broken clouds at 3000 feet AGL
Weather: VCSH  (showers in vicinity)

METAR text: EDDK 260450Z 24018KT 9999 -SHRA FEW025TCU BKN030 04/M01 Q0993 TEMPO 4500 SHSNRA BKN014
Conditions at: EDDK (KOELN/BONN , DE) observed 0450 UTC 26 February 2020
Temperature: 4.0°C (39°F)
Dewpoint: -1.0°C (30°F) [RH = 70%]
Pressure (altimeter): 29.32 inches Hg (993.0 mb)
Winds: from the WSW (240 degrees) at 21 MPH (18 knots; 9.3 m/s)
Visibility: 6 or more miles (10+ km)
Ceiling: 3000 feet AGL
Clouds: few clouds at 2500 feet AGL
broken clouds at 3000 feet AGL
Weather: -SHRA  (light rain showers)

METAR text: EDDK 260420Z 24017KT 9999 FEW020 SCT030 04/M01 Q0993 TEMPO 4500 SHSNRA BKN014TCU
Conditions at: EDDK (KOELN/BONN , DE) observed 0420 UTC 26 February 2020
Temperature: 4.0°C (39°F)
Dewpoint: -1.0°C (30°F) [RH = 70%]
Pressure (altimeter): 29.32 inches Hg (993.0 mb)
Winds: from the WSW (240 degrees) at 20 MPH (17 knots; 8.7 m/s)
Visibility: 6 or more miles (10+ km)
Ceiling: at least 12,000 feet AGL
Clouds: few clouds at 2000 feet AGL
scattered clouds at 3000 feet AGL
Weather: no significant weather observed at this time

METAR text: EDDK 260350Z 24016KT 9999 FEW020 BKN030 04/M01 Q0993 TEMPO 4500 SHSNRA BKN014TCU
Conditions at: EDDK (KOELN/BONN , DE) observed 0350 UTC 26 February 2020
Temperature: 4.0°C (39°F)
Dewpoint: -1.0°C (30°F) [RH = 70%]
Pressure (altimeter): 29.32 inches Hg (993.0 mb)
Winds: from the WSW (240 degrees) at 18 MPH (16 knots; 8.2 m/s)
Visibility: 6 or more miles (10+ km)
Ceiling: 3000 feet AGL
Clouds: few clouds at 2000 feet AGL
broken clouds at 3000 feet AGL
Weather: no significant weather observed at this time

METAR text: EDDK 260320Z 23012KT 200V270 9999 FEW028 BKN035 04/M01 Q0994 TEMPO 4500 SHSNRA BKN014TCU
Conditions at: EDDK (KOELN/BONN , DE) observed 0320 UTC 26 February 2020
Temperature: 4.0°C (39°F)
Dewpoint: -1.0°C (30°F) [RH = 70%]
Pressure (altimeter): 29.35 inches Hg (994.0 mb)
Winds: from the SW (230 degrees) at 14 MPH (12 knots; 6.2 m/s)
Visibility: 6 or more miles (10+ km)
Ceiling: 3500 feet AGL
Clouds: few clouds at 2800 feet AGL
broken clouds at 3500 feet AGL
Weather: no significant weather observed at this time

METAR text: EDDK 260250Z 24014KT 200V300 9999 FEW025 BKN040 04/00 Q0994 NOSIG
Conditions at: EDDK (KOELN/BONN , DE) observed 0250 UTC 26 February 2020
Temperature: 4.0°C (39°F)
Dewpoint: 0.0°C (32°F) [RH = 75%]
Pressure (altimeter): 29.35 inches Hg (994.0 mb)
Winds: from the WSW (240 degrees) at 16 MPH (14 knots; 7.2 m/s)
Visibility: 6 or more miles (10+ km)
Ceiling: 4000 feet AGL
Clouds: few clouds at 2500 feet AGL
broken clouds at 4000 feet AGL
Weather: no significant weather observed at this time

METAR text: EDDK 260220Z 23013KT 190V270 9999 BKN025 04/M00 Q0994 NOSIG
Conditions at: EDDK (KOELN/BONN , DE) observed 0220 UTC 26 February 2020
Temperature: 4.0°C (39°F)
Dewpoint: 0.0°C (32°F) [RH = 75%]
Pressure (altimeter): 29.35 inches Hg (994.0 mb)
Winds: from the SW (230 degrees) at 15 MPH (13 knots; 6.7 m/s)
Visibility: 6 or more miles (10+ km)
Ceiling: 2500 feet AGL
Clouds: broken clouds at 2500 feet AGL
Weather: no significant weather observed at this time

METAR text: EDDK 260150Z 22010KT 9999 FEW028 BKN035 04/00 Q0994 NOSIG
Conditions at: EDDK (KOELN/BONN , DE) observed 0150 UTC 26 February 2020
Temperature: 4.0°C (39°F)
Dewpoint: 0.0°C (32°F) [RH = 75%]
Pressure (altimeter): 29.35 inches Hg (994.0 mb)
Winds: from the SW (220 degrees) at 12 MPH (10 knots; 5.1 m/s)
Visibility: 6 or more miles (10+ km)
Ceiling: 3500 feet AGL
Clouds: few clouds at 2800 feet AGL
broken clouds at 3500 feet AGL
Weather: no significant weather observed at this time

METAR text: EDDK 260120Z 24009KT 220V280 9999 BKN028 04/00 Q0994 NOSIG
Conditions at: EDDK (KOELN/BONN , DE) observed 0120 UTC 26 February 2020
Temperature: 4.0°C (39°F)
Dewpoint: 0.0°C (32°F) [RH = 75%]
Pressure (altimeter): 29.35 inches Hg (994.0 mb)
Winds: from the WSW (240 degrees) at 10 MPH (9 knots; 4.6 m/s)
Visibility: 6 or more miles (10+ km)
Ceiling: 2800 feet AGL
Clouds: broken clouds at 2800 feet AGL
Weather: no significant weather observed at this time

METAR text: EDDK 260050Z 24013KT 9999 FEW023 04/01 Q0994 NOSIG
Conditions at: EDDK (KOELN/BONN , DE) observed 0050 UTC 26 February 2020
Temperature: 4.0°C (39°F)
Dewpoint: 1.0°C (34°F) [RH = 81%]
Pressure (altimeter): 29.35 inches Hg (994.0 mb)
Winds: from the WSW (240 degrees) at 15 MPH (13 knots; 6.7 m/s)
Visibility: 6 or more miles (10+ km)
Ceiling: at least 12,000 feet AGL
Clouds: few clouds at 2300 feet AGL
Weather: no significant weather observed at this time

METAR text: EDDK 260020Z 24012KT 9999 BKN023 05/01 Q0994 NOSIG
Conditions at: EDDK (KOELN/BONN , DE) observed 0020 UTC 26 February 2020
Temperature: 5.0°C (41°F)
Dewpoint: 1.0°C (34°F) [RH = 75%]
Pressure (altimeter): 29.35 inches Hg (994.0 mb)
Winds: from the WSW (240 degrees) at 14 MPH (12 knots; 6.2 m/s)
Visibility: 6 or more miles (10+ km)
Ceiling: 2300 feet AGL
Clouds: broken clouds at 2300 feet AGL
Weather: no significant weather observed at this time

METAR text: EDDK 252350Z 24014KT 210V270 9999 FEW023 SCT030 05/02 Q0995 NOSIG
Conditions at: EDDK (KOELN/BONN , DE) observed 2350 UTC 25 February 2020
Temperature: 5.0°C (41°F)
Dewpoint: 2.0°C (36°F) [RH = 81%]
Pressure (altimeter): 29.38 inches Hg (995.0 mb)
Winds: from the WSW (240 degrees) at 16 MPH (14 knots; 7.2 m/s)
Visibility: 6 or more miles (10+ km)
Ceiling: at least 12,000 feet AGL
Clouds: few clouds at 2300 feet AGL
scattered clouds at 3000 feet AGL
Weather: no significant weather observed at this time

METAR text: EDDK 252320Z 17007KT 9999 -SHRA BKN032TCU 04/02 Q0994 NOSIG
Conditions at: EDDK (KOELN/BONN , DE) observed 2320 UTC 25 February 2020
Temperature: 4.0°C (39°F)
Dewpoint: 2.0°C (36°F) [RH = 87%]
Pressure (altimeter): 29.35 inches Hg (994.0 mb)
Winds: from the S (170 degrees) at 8 MPH (7 knots; 3.6 m/s)
Visibility: 6 or more miles (10+ km)
Ceiling: 3200 feet AGL
Clouds: broken clouds at 3200 feet AGL
Weather: -SHRA  (light rain showers)

METAR text: EDDK 252250Z 17007KT 9999 BKN032 03/02 Q0995 NOSIG
Conditions at: EDDK (KOELN/BONN , DE) observed 2250 UTC 25 February 2020
Temperature: 3.0°C (37°F)
Dewpoint: 2.0°C (36°F) [RH = 93%]
Pressure (altimeter): 29.38 inches Hg (995.0 mb)
Winds: from the S (170 degrees) at 8 MPH (7 knots; 3.6 m/s)
Visibility: 6 or more miles (10+ km)
Ceiling: 3200 feet AGL
Clouds: broken clouds at 3200 feet AGL
Weather: no significant weather observed at this time

METAR text: EDDK 252220Z 15007KT 9999 BKN028 03/02 Q0995 NOSIG
Conditions at: EDDK (KOELN/BONN , DE) observed 2220 UTC 25 February 2020
Temperature: 3.0°C (37°F)
Dewpoint: 2.0°C (36°F) [RH = 93%]
Pressure (altimeter): 29.38 inches Hg (995.0 mb)
Winds: from the SSE (150 degrees) at 8 MPH (7 knots; 3.6 m/s)
Visibility: 6 or more miles (10+ km)
Ceiling: 2800 feet AGL
Clouds: broken clouds at 2800 feet AGL
Weather: no significant weather observed at this time

METAR text: EDDK 252150Z 18004KT 130V210 9999 FEW023 03/01 Q0996 NOSIG
Conditions at: EDDK (KOELN/BONN , DE) observed 2150 UTC 25 February 2020
Temperature: 3.0°C (37°F)
Dewpoint: 1.0°C (34°F) [RH = 87%]
Pressure (altimeter): 29.41 inches Hg (996.0 mb)
Winds: from the S (180 degrees) at 5 MPH (4 knots; 2.1 m/s)
Visibility: 6 or more miles (10+ km)
Ceiling: at least 12,000 feet AGL
Clouds: few clouds at 2300 feet AGL
Weather: no significant weather observed at this time

METAR text: EDDK 252120Z 20006KT 170V240 9999 FEW023 04/02 Q0996 NOSIG
Conditions at: EDDK (KOELN/BONN , DE) observed 2120 UTC 25 February 2020
Temperature: 4.0°C (39°F)
Dewpoint: 2.0°C (36°F) [RH = 87%]
Pressure (altimeter): 29.41 inches Hg (996.0 mb)
Winds: from the SSW (200 degrees) at 7 MPH (6 knots; 3.1 m/s)
Visibility: 6 or more miles (10+ km)
Ceiling: at least 12,000 feet AGL
Clouds: few clouds at 2300 feet AGL
Weather: no significant weather observed at this time

Forecast for: EDDK (KOELN/BONN , DE)
Text: TAF EDDK 270500Z 2706/2812 25007KT 9999 BKN020
Forecast period: 0600 UTC 27 February 2020 to 1200 UTC 28 February 2020
Forecast type: FROM: standard forecast or significant change
Winds: from the WSW (250 degrees) at 8 MPH (7 knots; 3.6 m/s)
Visibility: 6 or more miles 10+ km)
Ceiling: 2000 feet AGL
Clouds: broken clouds at 2000 feet AGL
Weather: no significant weather forecast for this period
Text: BECMG 2706/2708 15005KT
Forecast period: 0600 to 0800 UTC 27 February 2020
Forecast type: BECOMING: Conditions expected to become as follows by 0800 UTC 27 February 2020
Winds: from the SSE (150 degrees) at 6 MPH (5 knots; 2.6 m/s)
Visibility: 6 or more miles 10+ km)
Ceiling: 2000 feet AGL
Clouds: broken clouds at 2000 feet AGL
Weather: no significant weather forecast for this period
Text: BECMG 2708/2711 12010KT
Forecast period: 0800 to 1100 UTC 27 February 2020
Forecast type: BECOMING: Conditions expected to become as follows by 1100 UTC 27 February 2020
Winds: from the ESE (120 degrees) at 12 MPH (10 knots; 5.1 m/s)
Visibility: 6 or more miles 10+ km)
Ceiling: 2000 feet AGL
Clouds: broken clouds at 2000 feet AGL
Weather: no significant weather forecast for this period
Text: BECMG 2711/2714 BKN012
Forecast period: 1100 to 1500 UTC 27 February 2020
Forecast type: BECOMING: Conditions expected to become as follows by 1400 UTC 27 February 2020
Winds: from the ESE (120 degrees) at 12 MPH (10 knots; 5.1 m/s)
Visibility: 6 or more miles 10+ km)
Ceiling: 1200 feet AGL
Clouds: broken clouds at 1200 feet AGL
Weather: no significant weather forecast for this period
Text: TEMPO 2712/2718 4500 RA BKN008
Forecast period: 1200 to 1800 UTC 27 February 2020
Forecast type: TEMPORARY: The following changes expected for less than half the time period
Visibility: 2.80 miles (4.51 km)
Ceiling: 800 feet AGL
Clouds: broken clouds at 800 feet AGL
Weather: RA  (moderate rain)
Text: BECMG 2715/2718 30009KT
Forecast period: 1500 UTC 27 February 2020 to 0300 UTC 28 February 2020
Forecast type: BECOMING: Conditions expected to become as follows by 1800 UTC 27 February 2020
Winds: from the WNW (300 degrees) at 10 MPH (9 knots; 4.6 m/s)
Visibility: 6 or more miles 10+ km)
Ceiling: 1200 feet AGL
Clouds: broken clouds at 1200 feet AGL
Weather: no significant weather forecast for this period
Text: TEMPO 2718/2801 3000 SNRA BKN005
Forecast period: 1800 UTC 27 February 2020 to 0100 UTC 28 February 2020
Forecast type: TEMPORARY: The following changes expected for less than half the time period
Visibility: 1.86 miles (2.99 km)
Ceiling: 500 feet AGL
Clouds: broken clouds at 500 feet AGL
Weather: SN RA  (moderate snow, moderate rain)
Text: PROB30
Forecast period: 1800 UTC 27 February 2020 to 0100 UTC 28 February 2020
Forecast type: TEMPORARY: The following changes expected for less than half the time period
Visibility: 0.87 miles (1.40 km)
Ceiling: unknown
Clouds: missing
Weather: SN  (moderate snow)
Text: TEMPO 2718/2801 1400 SN
Forecast period: 0300 to 1200 UTC 28 February 2020
Forecast type: BECOMING: Conditions expected to become as follows by 0600 UTC 28 February 2020
Winds: from the WSW (240 degrees) at 8 MPH (7 knots; 3.6 m/s)
Visibility: 6 or more miles 10+ km)
Ceiling: at least 12,000 feet AGL
Clouds: scattered clouds at 1200 feet AGL
Weather: no significant weather forecast for this period